sensor_id;sensor_type;location;lat;lon;timestamp;temperature;humidity
41592;DHT22;28026;48.562;14.440;2022-08-03T00:00:24;17.70;99.90
41592;DHT22;28026;48.562;14.440;2022-08-03T00:02:55;17.70;99.90
41592;DHT22;28026;48.562;14.440;2022-08-03T00:05:26;17.70;99.90
41592;DHT22;28026;48.562;14.440;2022-08-03T00:07:58;17.60;99.90
41592;DHT22;28026;48.562;14.440;2022-08-03T00:10:30;17.50;99.90
41592;DHT22;28026;48.562;14.440;2022-08-03T00:13:01;17.40;99.90
41592;DHT22;28026;48.562;14.440;2022-08-03T00:15:32;17.40;99.90
41592;DHT22;28026;48.562;14.440;2022-08-03T00:18:03;17.40;99.90
41592;DHT22;28026;48.562;14.440;2022-08-03T00:20:34;17.40;99.90
41592;DHT22;28026;48.562;14.440;2022-08-03T00:23:06;17.40;99.90
41592;DHT22;28026;48.562;14.440;2022-08-03T00:25:37;17.30;99.90
41592;DHT22;28026;48.562;14.440;2022-08-03T00:28:08;17.30;99.90
41592;DHT22;28026;48.562;14.440;2022-08-03T00:30:39;17.20;99.90
41592;DHT22;28026;48.562;14.440;2022-08-03T00:33:10;17.20;99.90
41592;DHT22;28026;48.562;14.440;2022-08-03T00:35:41;17.20;99.90
41592;DHT22;28026;48.562;14.440;2022-08-03T00:38:12;17.10;99.90
41592;DHT22;28026;48.562;14.440;2022-08-03T00:40:43;17.10;99.90
41592;DHT22;28026;48.562;14.440;2022-08-03T00:43:15;17.00;99.90
41592;DHT22;28026;48.562;14.440;2022-08-03T00:45:46;17.00;99.90
41592;DHT22;28026;48.562;14.440;2022-08-03T00:48:18;16.80;99.90
41592;DHT22;28026;48.562;14.440;2022-08-03T00:50:48;16.80;99.90
41592;DHT22;28026;48.562;14.440;2022-08-03T00:53:20;16.80;99.90
41592;DHT22;28026;48.562;14.440;2022-08-03T00:55:51;16.80;99.90
41592;DHT22;28026;48.562;14.440;2022-08-03T00:58:23;16.90;99.90
41592;DHT22;28026;48.562;14.440;2022-08-03T01:00:54;16.90;99.90
41592;DHT22;28026;48.562;14.440;2022-08-03T01:03:25;16.90;99.90
41592;DHT22;28026;48.562;14.440;2022-08-03T01:06:01;16.80;99.90
41592;DHT22;28026;48.562;14.440;2022-08-03T01:08:58;16.80;99.90
41592;DHT22;28026;48.562;14.440;2022-08-03T01:11:43;16.90;99.90
41592;DHT22;28026;48.562;14.440;2022-08-03T01:14:30;16.90;99.90
41592;DHT22;28026;48.562;14.440;2022-08-03T01:17:14;16.90;99.90
41592;DHT22;28026;48.562;14.440;2022-08-03T01:20:02;16.90;99.90
41592;DHT22;28026;48.562;14.440;2022-08-03T01:32:54;16.60;99.90
41592;DHT22;28026;48.562;14.440;2022-08-03T01:38:38;16.60;99.90
41592;DHT22;28026;48.562;14.440;2022-08-03T01:41:32;16.60;99.90
41592;DHT22;28026;48.562;14.440;2022-08-03T01:44:09;16.70;99.90
41592;DHT22;28026;48.562;14.440;2022-08-03T01:46:42;16.60;99.90
41592;DHT22;28026;48.562;14.440;2022-08-03T01:49:18;16.60;99.90
41592;DHT22;28026;48.562;14.440;2022-08-03T01:51:51;16.50;99.90
41592;DHT22;28026;48.562;14.440;2022-08-03T01:54:24;16.50;99.90
41592;DHT22;28026;48.562;14.440;2022-08-03T01:56:58;16.50;99.90
41592;DHT22;28026;48.562;14.440;2022-08-03T01:59:32;16.50;99.90
41592;DHT22;28026;48.562;14.440;2022-08-03T02:02:06;16.50;99.90
41592;DHT22;28026;48.562;14.440;2022-08-03T02:04:44;16.40;99.90
41592;DHT22;28026;48.562;14.440;2022-08-03T02:07:18;16.40;99.90
41592;DHT22;28026;48.562;14.440;2022-08-03T02:09:51;16.40;99.90
41592;DHT22;28026;48.562;14.440;2022-08-03T02:12:26;16.40;99.90
41592;DHT22;28026;48.562;14.440;2022-08-03T02:14:59;16.30;99.90
41592;DHT22;28026;48.562;14.440;2022-08-03T02:17:33;16.20;99.90
41592;DHT22;28026;48.562;14.440;2022-08-03T02:20:07;16.10;99.90
41592;DHT22;28026;48.562;14.440;2022-08-03T02:22:42;16.10;99.90
41592;DHT22;28026;48.562;14.440;2022-08-03T02:25:16;16.10;99.90
41592;DHT22;28026;48.562;14.440;2022-08-03T02:27:54;16.10;99.90
41592;DHT22;28026;48.562;14.440;2022-08-03T02:30:33;16.10;99.90
41592;DHT22;28026;48.562;14.440;2022-08-03T02:33:13;16.10;99.90
41592;DHT22;28026;48.562;14.440;2022-08-03T02:35:55;16.10;99.90
41592;DHT22;28026;48.562;14.440;2022-08-03T02:38:33;16.00;99.90
41592;DHT22;28026;48.562;14.440;2022-08-03T02:41:16;16.10;99.90
41592;DHT22;28026;48.562;14.440;2022-08-03T02:44:10;15.80;99.90
41592;DHT22;28026;48.562;14.440;2022-08-03T02:46:45;15.50;99.90
41592;DHT22;28026;48.562;14.440;2022-08-03T02:49:23;15.60;99.90
41592;DHT22;28026;48.562;14.440;2022-08-03T02:51:58;15.70;99.90
41592;DHT22;28026;48.562;14.440;2022-08-03T02:54:31;15.70;99.90
41592;DHT22;28026;48.562;14.440;2022-08-03T02:57:06;15.70;99.90
41592;DHT22;28026;48.562;14.440;2022-08-03T02:59:42;15.70;99.90
41592;DHT22;28026;48.562;14.440;2022-08-03T03:02:16;15.70;99.90
41592;DHT22;28026;48.562;14.440;2022-08-03T03:04:50;15.80;99.90
41592;DHT22;28026;48.562;14.440;2022-08-03T03:07:22;15.90;99.90
41592;DHT22;28026;48.562;14.440;2022-08-03T03:09:55;15.90;99.90
41592;DHT22;28026;48.562;14.440;2022-08-03T03:12:27;15.80;99.90
41592;DHT22;28026;48.562;14.440;2022-08-03T03:15:00;15.90;99.90
41592;DHT22;28026;48.562;14.440;2022-08-03T03:17:32;15.80;99.90
41592;DHT22;28026;48.562;14.440;2022-08-03T03:20:07;15.90;99.90
41592;DHT22;28026;48.562;14.440;2022-08-03T03:22:39;15.80;99.90
41592;DHT22;28026;48.562;14.440;2022-08-03T03:25:11;15.80;99.90
41592;DHT22;28026;48.562;14.440;2022-08-03T03:27:43;15.70;99.90
41592;DHT22;28026;48.562;14.440;2022-08-03T03:30:14;15.70;99.90
41592;DHT22;28026;48.562;14.440;2022-08-03T03:32:45;15.70;99.90
41592;DHT22;28026;48.562;14.440;2022-08-03T03:35:17;15.70;99.90
41592;DHT22;28026;48.562;14.440;2022-08-03T03:37:48;15.70;99.90
41592;DHT22;28026;48.562;14.440;2022-08-03T03:40:20;15.70;99.90
41592;DHT22;28026;48.562;14.440;2022-08-03T03:42:52;15.70;99.90
41592;DHT22;28026;48.562;14.440;2022-08-03T03:45:23;15.70;99.90
41592;DHT22;28026;48.562;14.440;2022-08-03T03:47:54;15.70;99.90
41592;DHT22;28026;48.562;14.440;2022-08-03T03:50:26;15.70;99.90
41592;DHT22;28026;48.562;14.440;2022-08-03T03:53:02;15.70;99.90
41592;DHT22;28026;48.562;14.440;2022-08-03T03:55:34;15.60;99.90
41592;DHT22;28026;48.562;14.440;2022-08-03T03:58:06;15.70;99.90
41592;DHT22;28026;48.562;14.440;2022-08-03T04:00:38;15.70;99.90
41592;DHT22;28026;48.562;14.440;2022-08-03T04:03:10;15.70;99.90
41592;DHT22;28026;48.562;14.440;2022-08-03T04:05:42;15.70;99.90
41592;DHT22;28026;48.562;14.440;2022-08-03T04:08:32;15.70;99.90
41592;DHT22;28026;48.562;14.440;2022-08-03T04:11:26;15.70;99.90
41592;DHT22;28026;48.562;14.440;2022-08-03T04:14:10;15.80;99.90
41592;DHT22;28026;48.562;14.440;2022-08-03T04:17:05;15.90;99.90
41592;DHT22;28026;48.562;14.440;2022-08-03T04:19:45;15.90;99.90
41592;DHT22;28026;48.562;14.440;2022-08-03T04:22:26;16.00;99.90
41592;DHT22;28026;48.562;14.440;2022-08-03T04:25:06;16.10;99.90
41592;DHT22;28026;48.562;14.440;2022-08-03T04:27:48;16.10;99.90
41592;DHT22;28026;48.562;14.440;2022-08-03T04:30:23;16.10;99.90
41592;DHT22;28026;48.562;14.440;2022-08-03T04:32:57;16.20;99.90
41592;DHT22;28026;48.562;14.440;2022-08-03T04:35:33;16.20;99.90
41592;DHT22;28026;48.562;14.440;2022-08-03T04:38:06;16.20;99.90
41592;DHT22;28026;48.562;14.440;2022-08-03T04:40:42;16.30;99.90
41592;DHT22;28026;48.562;14.440;2022-08-03T04:43:17;16.40;99.90
41592;DHT22;28026;48.562;14.440;2022-08-03T04:45:52;16.50;99.90
41592;DHT22;28026;48.562;14.440;2022-08-03T04:48:26;16.60;99.90
41592;DHT22;28026;48.562;14.440;2022-08-03T04:50:58;16.70;99.90
41592;DHT22;28026;48.562;14.440;2022-08-03T04:53:30;16.60;99.90
41592;DHT22;28026;48.562;14.440;2022-08-03T04:56:04;16.30;99.90
41592;DHT22;28026;48.562;14.440;2022-08-03T04:58:36;15.90;99.90
41592;DHT22;28026;48.562;14.440;2022-08-03T05:01:07;16.10;99.90
41592;DHT22;28026;48.562;14.440;2022-08-03T05:03:38;16.40;99.90
41592;DHT22;28026;48.562;14.440;2022-08-03T05:06:09;16.50;99.90
41592;DHT22;28026;48.562;14.440;2022-08-03T05:08:40;17.00;99.90
41592;DHT22;28026;48.562;14.440;2022-08-03T05:11:11;17.30;99.90
41592;DHT22;28026;48.562;14.440;2022-08-03T05:13:43;17.70;99.90
41592;DHT22;28026;48.562;14.440;2022-08-03T05:16:15;18.00;99.90
41592;DHT22;28026;48.562;14.440;2022-08-03T05:18:46;18.10;99.90
41592;DHT22;28026;48.562;14.440;2022-08-03T05:21:17;18.20;99.90
41592;DHT22;28026;48.562;14.440;2022-08-03T05:23:48;18.40;99.90
41592;DHT22;28026;48.562;14.440;2022-08-03T05:26:19;18.70;99.90
41592;DHT22;28026;48.562;14.440;2022-08-03T05:28:51;18.70;99.90
41592;DHT22;28026;48.562;14.440;2022-08-03T05:31:22;18.70;99.90
41592;DHT22;28026;48.562;14.440;2022-08-03T05:33:53;18.70;99.90
41592;DHT22;28026;48.562;14.440;2022-08-03T05:36:26;18.20;99.90
41592;DHT22;28026;48.562;14.440;2022-08-03T05:38:57;18.30;99.90
41592;DHT22;28026;48.562;14.440;2022-08-03T05:41:28;18.60;99.90
41592;DHT22;28026;48.562;14.440;2022-08-03T05:43:59;18.80;99.90
41592;DHT22;28026;48.562;14.440;2022-08-03T05:46:31;19.00;99.90
41592;DHT22;28026;48.562;14.440;2022-08-03T05:49:02;19.20;99.90
41592;DHT22;28026;48.562;14.440;2022-08-03T05:51:33;19.20;99.90
41592;DHT22;28026;48.562;14.440;2022-08-03T05:54:04;19.40;99.90
41592;DHT22;28026;48.562;14.440;2022-08-03T05:56:35;19.60;99.90
41592;DHT22;28026;48.562;14.440;2022-08-03T05:59:07;19.80;99.90
41592;DHT22;28026;48.562;14.440;2022-08-03T06:01:38;19.90;99.90
41592;DHT22;28026;48.562;14.440;2022-08-03T06:04:09;19.90;99.90
41592;DHT22;28026;48.562;14.440;2022-08-03T06:06:40;20.20;99.90
41592;DHT22;28026;48.562;14.440;2022-08-03T06:09:11;20.20;99.90
41592;DHT22;28026;48.562;14.440;2022-08-03T06:11:42;20.20;99.90
41592;DHT22;28026;48.562;14.440;2022-08-03T06:14:13;20.00;99.90
41592;DHT22;28026;48.562;14.440;2022-08-03T06:16:44;20.20;99.90
41592;DHT22;28026;48.562;14.440;2022-08-03T06:19:15;20.50;99.90
41592;DHT22;28026;48.562;14.440;2022-08-03T06:21:46;20.70;99.90
41592;DHT22;28026;48.562;14.440;2022-08-03T06:24:17;21.10;99.90
41592;DHT22;28026;48.562;14.440;2022-08-03T06:26:48;21.00;99.90
41592;DHT22;28026;48.562;14.440;2022-08-03T06:29:19;21.00;99.90
41592;DHT22;28026;48.562;14.440;2022-08-03T06:31:50;21.40;99.90
41592;DHT22;28026;48.562;14.440;2022-08-03T06:34:21;21.60;99.90
41592;DHT22;28026;48.562;14.440;2022-08-03T06:36:52;21.90;99.90
41592;DHT22;28026;48.562;14.440;2022-08-03T06:39:23;21.90;99.90
41592;DHT22;28026;48.562;14.440;2022-08-03T06:41:54;21.80;99.90
41592;DHT22;28026;48.562;14.440;2022-08-03T06:44:25;21.90;99.90
41592;DHT22;28026;48.562;14.440;2022-08-03T06:46:56;22.10;99.90
41592;DHT22;28026;48.562;14.440;2022-08-03T06:49:28;22.20;99.90
41592;DHT22;28026;48.562;14.440;2022-08-03T06:51:59;22.20;99.90
41592;DHT22;28026;48.562;14.440;2022-08-03T06:54:29;21.90;99.90
41592;DHT22;28026;48.562;14.440;2022-08-03T06:57:00;22.30;99.90
41592;DHT22;28026;48.562;14.440;2022-08-03T06:59:31;22.50;99.90
41592;DHT22;28026;48.562;14.440;2022-08-03T07:02:03;22.40;99.90
41592;DHT22;28026;48.562;14.440;2022-08-03T07:04:34;22.60;99.90
41592;DHT22;28026;48.562;14.440;2022-08-03T07:07:05;22.80;99.90
41592;DHT22;28026;48.562;14.440;2022-08-03T07:09:36;23.20;99.90
41592;DHT22;28026;48.562;14.440;2022-08-03T07:12:07;22.90;99.90
41592;DHT22;28026;48.562;14.440;2022-08-03T07:14:38;23.00;99.90
41592;DHT22;28026;48.562;14.440;2022-08-03T07:17:09;23.00;99.90
41592;DHT22;28026;48.562;14.440;2022-08-03T07:19:40;22.90;99.90
41592;DHT22;28026;48.562;14.440;2022-08-03T07:22:11;23.00;99.90
41592;DHT22;28026;48.562;14.440;2022-08-03T07:24:42;23.40;99.90
41592;DHT22;28026;48.562;14.440;2022-08-03T07:27:15;23.00;99.90
41592;DHT22;28026;48.562;14.440;2022-08-03T07:29:46;23.20;99.90
41592;DHT22;28026;48.562;14.440;2022-08-03T07:32:17;23.30;99.90
41592;DHT22;28026;48.562;14.440;2022-08-03T07:34:48;23.40;99.90
41592;DHT22;28026;48.562;14.440;2022-08-03T07:37:20;23.70;99.90
41592;DHT22;28026;48.562;14.440;2022-08-03T07:39:51;23.60;99.90
41592;DHT22;28026;48.562;14.440;2022-08-03T07:42:22;24.40;99.90
41592;DHT22;28026;48.562;14.440;2022-08-03T07:44:53;24.50;99.90
41592;DHT22;28026;48.562;14.440;2022-08-03T07:47:27;24.50;99.90
41592;DHT22;28026;48.562;14.440;2022-08-03T07:50:00;24.40;99.90
41592;DHT22;28026;48.562;14.440;2022-08-03T07:52:31;24.40;99.90
41592;DHT22;28026;48.562;14.440;2022-08-03T07:55:19;24.20;99.90
41592;DHT22;28026;48.562;14.440;2022-08-03T07:58:05;24.40;99.90
41592;DHT22;28026;48.562;14.440;2022-08-03T08:00:52;24.40;99.90
41592;DHT22;28026;48.562;14.440;2022-08-03T08:03:23;24.70;99.90
41592;DHT22;28026;48.562;14.440;2022-08-03T08:05:55;24.90;99.90
41592;DHT22;28026;48.562;14.440;2022-08-03T08:08:26;24.70;99.90
41592;DHT22;28026;48.562;14.440;2022-08-03T08:10:57;25.10;99.90
41592;DHT22;28026;48.562;14.440;2022-08-03T08:13:28;25.10;99.90
41592;DHT22;28026;48.562;14.440;2022-08-03T08:16:00;25.30;99.90
41592;DHT22;28026;48.562;14.440;2022-08-03T08:18:31;25.50;99.90
41592;DHT22;28026;48.562;14.440;2022-08-03T08:21:02;25.80;99.90
41592;DHT22;28026;48.562;14.440;2022-08-03T08:23:33;25.80;99.90
41592;DHT22;28026;48.562;14.440;2022-08-03T08:26:04;26.00;99.90
41592;DHT22;28026;48.562;14.440;2022-08-03T08:28:34;25.40;99.90
41592;DHT22;28026;48.562;14.440;2022-08-03T08:31:05;25.30;99.90
41592;DHT22;28026;48.562;14.440;2022-08-03T08:33:37;25.50;99.90
41592;DHT22;28026;48.562;14.440;2022-08-03T08:36:08;25.60;99.90
41592;DHT22;28026;48.562;14.440;2022-08-03T08:38:39;26.00;99.90
41592;DHT22;28026;48.562;14.440;2022-08-03T08:41:12;26.20;99.90
41592;DHT22;28026;48.562;14.440;2022-08-03T08:43:45;26.60;99.90
41592;DHT22;28026;48.562;14.440;2022-08-03T08:46:17;26.50;99.90
41592;DHT22;28026;48.562;14.440;2022-08-03T08:48:51;26.50;99.90
41592;DHT22;28026;48.562;14.440;2022-08-03T08:51:28;26.00;99.90
41592;DHT22;28026;48.562;14.440;2022-08-03T08:54:06;26.30;99.90
41592;DHT22;28026;48.562;14.440;2022-08-03T08:56:39;26.90;99.90
41592;DHT22;28026;48.562;14.440;2022-08-03T08:59:10;27.00;99.90
41592;DHT22;28026;48.562;14.440;2022-08-03T09:01:42;27.30;99.90
41592;DHT22;28026;48.562;14.440;2022-08-03T09:04:13;27.30;99.90
41592;DHT22;28026;48.562;14.440;2022-08-03T09:06:45;26.80;99.90
41592;DHT22;28026;48.562;14.440;2022-08-03T09:09:16;27.10;99.90
41592;DHT22;28026;48.562;14.440;2022-08-03T09:11:48;27.50;99.90
41592;DHT22;28026;48.562;14.440;2022-08-03T09:14:19;26.90;99.90
41592;DHT22;28026;48.562;14.440;2022-08-03T09:16:58;27.00;99.90
41592;DHT22;28026;48.562;14.440;2022-08-03T09:19:32;27.20;99.90
41592;DHT22;28026;48.562;14.440;2022-08-03T09:22:16;27.20;99.90
41592;DHT22;28026;48.562;14.440;2022-08-03T09:25:02;27.30;99.90
41592;DHT22;28026;48.562;14.440;2022-08-03T09:27:44;27.40;99.90
41592;DHT22;28026;48.562;14.440;2022-08-03T09:30:17;28.10;99.90
41592;DHT22;28026;48.562;14.440;2022-08-03T09:32:49;28.10;99.90
41592;DHT22;28026;48.562;14.440;2022-08-03T09:35:26;28.10;99.90
41592;DHT22;28026;48.562;14.440;2022-08-03T09:40:45;28.00;99.90
41592;DHT22;28026;48.562;14.440;2022-08-03T09:43:16;28.20;99.90
41592;DHT22;28026;48.562;14.440;2022-08-03T09:45:48;28.00;99.90
41592;DHT22;28026;48.562;14.440;2022-08-03T09:48:22;28.10;99.90
41592;DHT22;28026;48.562;14.440;2022-08-03T09:50:57;27.70;99.90
41592;DHT22;28026;48.562;14.440;2022-08-03T09:53:31;27.70;99.90
41592;DHT22;28026;48.562;14.440;2022-08-03T09:56:13;27.80;99.90
41592;DHT22;28026;48.562;14.440;2022-08-03T09:58:45;28.40;99.90
41592;DHT22;28026;48.562;14.440;2022-08-03T10:01:17;29.60;99.90
41592;DHT22;28026;48.562;14.440;2022-08-03T10:03:56;29.50;99.90
41592;DHT22;28026;48.562;14.440;2022-08-03T10:06:29;28.40;99.90
41592;DHT22;28026;48.562;14.440;2022-08-03T10:09:11;28.10;99.90
41592;DHT22;28026;48.562;14.440;2022-08-03T10:11:46;28.00;99.90
41592;DHT22;28026;48.562;14.440;2022-08-03T10:14:17;27.60;99.90
41592;DHT22;28026;48.562;14.440;2022-08-03T10:16:49;27.90;99.90
41592;DHT22;28026;48.562;14.440;2022-08-03T10:19:19;27.70;99.90
41592;DHT22;28026;48.562;14.440;2022-08-03T10:21:55;28.00;99.90
41592;DHT22;28026;48.562;14.440;2022-08-03T10:24:38;28.60;99.90
41592;DHT22;28026;48.562;14.440;2022-08-03T10:27:23;29.20;99.90
41592;DHT22;28026;48.562;14.440;2022-08-03T10:30:08;28.60;99.90
41592;DHT22;28026;48.562;14.440;2022-08-03T10:32:55;28.90;99.90
41592;DHT22;28026;48.562;14.440;2022-08-03T10:35:39;28.40;99.90
41592;DHT22;28026;48.562;14.440;2022-08-03T10:38:18;29.20;99.90
41592;DHT22;28026;48.562;14.440;2022-08-03T10:40:54;28.10;99.90
41592;DHT22;28026;48.562;14.440;2022-08-03T10:43:49;29.00;99.90
41592;DHT22;28026;48.562;14.440;2022-08-03T10:46:32;29.70;99.90
41592;DHT22;28026;48.562;14.440;2022-08-03T10:49:15;29.60;99.90
41592;DHT22;28026;48.562;14.440;2022-08-03T10:51:48;29.20;99.90
41592;DHT22;28026;48.562;14.440;2022-08-03T10:54:40;29.60;99.90
41592;DHT22;28026;48.562;14.440;2022-08-03T10:57:52;30.40;99.90
41592;DHT22;28026;48.562;14.440;2022-08-03T11:00:26;29.70;99.90
41592;DHT22;28026;48.562;14.440;2022-08-03T11:03:12;30.50;99.90
41592;DHT22;28026;48.562;14.440;2022-08-03T11:05:47;29.70;99.90
41592;DHT22;28026;48.562;14.440;2022-08-03T11:11:00;29.40;99.90
41592;DHT22;28026;48.562;14.440;2022-08-03T11:14:04;29.70;99.90
41592;DHT22;28026;48.562;14.440;2022-08-03T11:17:07;30.10;99.90
41592;DHT22;28026;48.562;14.440;2022-08-03T11:19:46;29.30;99.90
41592;DHT22;28026;48.562;14.440;2022-08-03T11:22:22;27.80;99.90
41592;DHT22;28026;48.562;14.440;2022-08-03T11:27:30;28.40;99.90
41592;DHT22;28026;48.562;14.440;2022-08-03T11:30:10;28.60;99.90
41592;DHT22;28026;48.562;14.440;2022-08-03T11:32:59;28.70;99.90
41592;DHT22;28026;48.562;14.440;2022-08-03T11:35:33;27.80;99.90
41592;DHT22;28026;48.562;14.440;2022-08-03T11:38:06;28.40;99.90
41592;DHT22;28026;48.562;14.440;2022-08-03T11:41:06;28.10;99.90
41592;DHT22;28026;48.562;14.440;2022-08-03T11:44:03;27.50;99.90
41592;DHT22;28026;48.562;14.440;2022-08-03T11:46:36;28.40;99.90
41592;DHT22;28026;48.562;14.440;2022-08-03T11:49:08;28.40;99.90
41592;DHT22;28026;48.562;14.440;2022-08-03T11:51:41;29.60;99.90
41592;DHT22;28026;48.562;14.440;2022-08-03T11:54:12;29.30;99.90
41592;DHT22;28026;48.562;14.440;2022-08-03T11:56:47;29.30;99.90
41592;DHT22;28026;48.562;14.440;2022-08-03T11:59:34;28.90;99.90
41592;DHT22;28026;48.562;14.440;2022-08-03T12:02:11;28.80;99.90
41592;DHT22;28026;48.562;14.440;2022-08-03T12:04:57;28.60;99.90
41592;DHT22;28026;48.562;14.440;2022-08-03T12:07:32;27.80;99.90
41592;DHT22;28026;48.562;14.440;2022-08-03T12:10:13;28.00;99.90
41592;DHT22;28026;48.562;14.440;2022-08-03T12:12:45;28.90;99.90
41592;DHT22;28026;48.562;14.440;2022-08-03T12:15:30;28.70;99.90
41592;DHT22;28026;48.562;14.440;2022-08-03T12:18:16;29.00;99.90
41592;DHT22;28026;48.562;14.440;2022-08-03T12:20:51;28.00;99.90
41592;DHT22;28026;48.562;14.440;2022-08-03T12:23:33;28.40;99.90
41592;DHT22;28026;48.562;14.440;2022-08-03T12:26:09;29.30;99.90
41592;DHT22;28026;48.562;14.440;2022-08-03T12:28:47;30.10;99.90
41592;DHT22;28026;48.562;14.440;2022-08-03T12:31:19;28.80;99.90
41592;DHT22;28026;48.562;14.440;2022-08-03T12:34:02;28.10;99.90
41592;DHT22;28026;48.562;14.440;2022-08-03T12:36:36;28.10;99.90
41592;DHT22;28026;48.562;14.440;2022-08-03T12:39:08;28.60;99.90
41592;DHT22;28026;48.562;14.440;2022-08-03T12:41:41;29.20;99.90
41592;DHT22;28026;48.562;14.440;2022-08-03T12:44:12;29.30;99.90
41592;DHT22;28026;48.562;14.440;2022-08-03T12:46:43;29.40;99.90
41592;DHT22;28026;48.562;14.440;2022-08-03T12:49:15;29.90;99.90
41592;DHT22;28026;48.562;14.440;2022-08-03T12:54:27;30.50;99.90
41592;DHT22;28026;48.562;14.440;2022-08-03T12:57:02;29.70;99.90
41592;DHT22;28026;48.562;14.440;2022-08-03T12:59:44;29.20;99.90
41592;DHT22;28026;48.562;14.440;2022-08-03T13:02:20;28.90;99.90
41592;DHT22;28026;48.562;14.440;2022-08-03T13:04:55;29.80;99.90
41592;DHT22;28026;48.562;14.440;2022-08-03T13:07:26;30.70;99.90
41592;DHT22;28026;48.562;14.440;2022-08-03T13:09:57;30.20;99.90
41592;DHT22;28026;48.562;14.440;2022-08-03T13:12:28;30.60;99.90
41592;DHT22;28026;48.562;14.440;2022-08-03T13:14:59;29.70;99.90
41592;DHT22;28026;48.562;14.440;2022-08-03T13:17:31;29.60;99.90
41592;DHT22;28026;48.562;14.440;2022-08-03T13:20:02;30.10;99.90
41592;DHT22;28026;48.562;14.440;2022-08-03T13:22:34;29.10;99.90
41592;DHT22;28026;48.562;14.440;2022-08-03T13:25:05;29.20;99.90
41592;DHT22;28026;48.562;14.440;2022-08-03T13:27:37;30.10;99.90
41592;DHT22;28026;48.562;14.440;2022-08-03T13:30:09;30.60;99.90
41592;DHT22;28026;48.562;14.440;2022-08-03T13:32:41;31.70;99.90
41592;DHT22;28026;48.562;14.440;2022-08-03T13:35:12;31.10;98.80
41592;DHT22;28026;48.562;14.440;2022-08-03T13:37:44;30.70;99.10
41592;DHT22;28026;48.562;14.440;2022-08-03T13:40:15;31.20;98.50
41592;DHT22;28026;48.562;14.440;2022-08-03T13:42:46;30.40;99.90
41592;DHT22;28026;48.562;14.440;2022-08-03T13:45:16;30.50;99.50
41592;DHT22;28026;48.562;14.440;2022-08-03T13:47:47;30.60;97.90
41592;DHT22;28026;48.562;14.440;2022-08-03T13:50:19;31.80;98.40
41592;DHT22;28026;48.562;14.440;2022-08-03T13:52:49;32.00;98.30
41592;DHT22;28026;48.562;14.440;2022-08-03T13:55:21;30.90;98.80
41592;DHT22;28026;48.562;14.440;2022-08-03T13:57:52;31.20;98.40
41592;DHT22;28026;48.562;14.440;2022-08-03T14:00:23;31.20;98.00
41592;DHT22;28026;48.562;14.440;2022-08-03T14:02:57;31.70;97.10
41592;DHT22;28026;48.562;14.440;2022-08-03T14:05:30;30.40;97.20
41592;DHT22;28026;48.562;14.440;2022-08-03T14:08:02;31.30;97.60
41592;DHT22;28026;48.562;14.440;2022-08-03T14:10:38;31.80;97.60
41592;DHT22;28026;48.562;14.440;2022-08-03T14:13:13;32.10;97.40
41592;DHT22;28026;48.562;14.440;2022-08-03T14:15:46;30.90;97.30
41592;DHT22;28026;48.562;14.440;2022-08-03T14:18:20;30.00;97.30
41592;DHT22;28026;48.562;14.440;2022-08-03T14:20:52;29.60;97.00
41592;DHT22;28026;48.562;14.440;2022-08-03T14:23:23;29.40;97.90
41592;DHT22;28026;48.562;14.440;2022-08-03T14:25:54;30.00;97.10
41592;DHT22;28026;48.562;14.440;2022-08-03T14:28:26;29.90;96.80
41592;DHT22;28026;48.562;14.440;2022-08-03T14:30:58;30.90;96.60
41592;DHT22;28026;48.562;14.440;2022-08-03T14:33:30;31.30;95.90
41592;DHT22;28026;48.562;14.440;2022-08-03T14:36:01;30.30;95.40
41592;DHT22;28026;48.562;14.440;2022-08-03T14:38:33;30.50;97.00
41592;DHT22;28026;48.562;14.440;2022-08-03T14:41:04;29.30;97.80
41592;DHT22;28026;48.562;14.440;2022-08-03T14:43:35;29.90;96.30
41592;DHT22;28026;48.562;14.440;2022-08-03T14:46:06;30.60;96.00
41592;DHT22;28026;48.562;14.440;2022-08-03T14:48:36;30.70;95.90
41592;DHT22;28026;48.562;14.440;2022-08-03T14:51:07;30.40;95.10
41592;DHT22;28026;48.562;14.440;2022-08-03T14:53:39;29.30;94.80
41592;DHT22;28026;48.562;14.440;2022-08-03T14:56:10;30.10;94.50
41592;DHT22;28026;48.562;14.440;2022-08-03T14:58:41;29.80;94.40
41592;DHT22;28026;48.562;14.440;2022-08-03T15:01:12;30.20;94.30
41592;DHT22;28026;48.562;14.440;2022-08-03T15:03:43;30.70;93.20
41592;DHT22;28026;48.562;14.440;2022-08-03T15:06:16;31.00;94.60
41592;DHT22;28026;48.562;14.440;2022-08-03T15:08:48;31.60;93.00
41592;DHT22;28026;48.562;14.440;2022-08-03T15:11:19;30.80;92.90
41592;DHT22;28026;48.562;14.440;2022-08-03T15:13:50;30.60;92.80
41592;DHT22;28026;48.562;14.440;2022-08-03T15:16:21;30.20;92.00
41592;DHT22;28026;48.562;14.440;2022-08-03T15:18:52;29.30;95.50
41592;DHT22;28026;48.562;14.440;2022-08-03T15:21:23;28.90;94.60
41592;DHT22;28026;48.562;14.440;2022-08-03T15:23:54;29.00;95.70
41592;DHT22;28026;48.562;14.440;2022-08-03T15:26:25;28.70;93.30
41592;DHT22;28026;48.562;14.440;2022-08-03T15:28:57;29.10;94.40
41592;DHT22;28026;48.562;14.440;2022-08-03T15:31:28;28.70;92.40
41592;DHT22;28026;48.562;14.440;2022-08-03T15:33:59;28.70;95.30
41592;DHT22;28026;48.562;14.440;2022-08-03T15:36:33;29.30;93.80
41592;DHT22;28026;48.562;14.440;2022-08-03T15:39:04;29.50;93.90
41592;DHT22;28026;48.562;14.440;2022-08-03T15:41:35;30.00;93.40
41592;DHT22;28026;48.562;14.440;2022-08-03T15:44:06;30.60;91.00
41592;DHT22;28026;48.562;14.440;2022-08-03T15:46:37;30.70;91.00
41592;DHT22;28026;48.562;14.440;2022-08-03T15:49:08;30.60;91.90
41592;DHT22;28026;48.562;14.440;2022-08-03T15:51:39;30.20;93.10
41592;DHT22;28026;48.562;14.440;2022-08-03T15:54:10;30.40;92.80
41592;DHT22;28026;48.562;14.440;2022-08-03T15:56:42;30.50;91.90
41592;DHT22;28026;48.562;14.440;2022-08-03T15:59:14;29.90;91.40
41592;DHT22;28026;48.562;14.440;2022-08-03T16:01:46;29.80;92.40
41592;DHT22;28026;48.562;14.440;2022-08-03T16:04:18;29.90;92.80
41592;DHT22;28026;48.562;14.440;2022-08-03T16:06:49;29.70;93.40
41592;DHT22;28026;48.562;14.440;2022-08-03T16:09:20;28.90;91.70
41592;DHT22;28026;48.562;14.440;2022-08-03T16:11:52;29.30;91.90
41592;DHT22;28026;48.562;14.440;2022-08-03T16:14:23;29.90;91.80
41592;DHT22;28026;48.562;14.440;2022-08-03T16:16:54;30.00;91.50
41592;DHT22;28026;48.562;14.440;2022-08-03T16:19:25;29.50;91.60
41592;DHT22;28026;48.562;14.440;2022-08-03T16:21:57;29.60;91.30